sensor_id;sensor_type;location;lat;lon;timestamp;P1;durP1;ratioP1;P2;durP2;ratioP2
24086;SDS011;22893;50.572;7.234;2022-09-14T00:01:24;3.83;;;1.72;;
24086;SDS011;22893;50.572;7.234;2022-09-14T00:03:54;5.60;;;1.98;;
24086;SDS011;22893;50.572;7.234;2022-09-14T00:06:24;3.35;;;1.92;;
24086;SDS011;22893;50.572;7.234;2022-09-14T00:08:53;3.50;;;1.82;;
24086;SDS011;22893;50.572;7.234;2022-09-14T00:11:24;4.70;;;1.90;;
24086;SDS011;22893;50.572;7.234;2022-09-14T00:13:52;3.33;;;1.70;;
24086;SDS011;22893;50.572;7.234;2022-09-14T00:16:23;4.05;;;1.92;;
24086;SDS011;22893;50.572;7.234;2022-09-14T00:18:53;3.45;;;1.55;;
24086;SDS011;22893;50.572;7.234;2022-09-14T00:21:35;3.83;;;1.42;;
24086;SDS011;22893;50.572;7.234;2022-09-14T00:24:05;3.45;;;1.87;;
24086;SDS011;22893;50.572;7.234;2022-09-14T00:26:33;6.10;;;2.27;;
24086;SDS011;22893;50.572;7.234;2022-09-14T00:29:02;6.25;;;2.10;;
24086;SDS011;22893;50.572;7.234;2022-09-14T00:31:31;3.00;;;1.80;;
24086;SDS011;22893;50.572;7.234;2022-09-14T00:34:01;4.67;;;1.60;;
24086;SDS011;22893;50.572;7.234;2022-09-14T00:36:30;4.20;;;1.60;;
24086;SDS011;22893;50.572;7.234;2022-09-14T00:38:59;3.77;;;1.40;;
24086;SDS011;22893;50.572;7.234;2022-09-14T00:41:29;2.90;;;1.45;;
24086;SDS011;22893;50.572;7.234;2022-09-14T00:44:03;4.78;;;1.35;;
24086;SDS011;22893;50.572;7.234;2022-09-14T00:46:35;5.15;;;1.77;;
24086;SDS011;22893;50.572;7.234;2022-09-14T00:51:53;5.30;;;1.45;;
24086;SDS011;22893;50.572;7.234;2022-09-14T00:54:31;4.70;;;2.00;;
24086;SDS011;22893;50.572;7.234;2022-09-14T00:57:00;3.02;;;1.60;;
24086;SDS011;22893;50.572;7.234;2022-09-14T00:59:30;3.65;;;1.70;;
24086;SDS011;22893;50.572;7.234;2022-09-14T01:02:00;3.62;;;1.60;;
24086;SDS011;22893;50.572;7.234;2022-09-14T01:04:28;3.85;;;1.70;;
24086;SDS011;22893;50.572;7.234;2022-09-14T01:07:10;5.72;;;2.05;;
24086;SDS011;22893;50.572;7.234;2022-09-14T01:09:59;2.47;;;1.37;;
24086;SDS011;22893;50.572;7.234;2022-09-14T07:32:12;1.60;;;1.00;;
24086;SDS011;22893;50.572;7.234;2022-09-14T07:34:40;2.42;;;1.00;;
24086;SDS011;22893;50.572;7.234;2022-09-14T07:37:07;1.62;;;1.00;;
24086;SDS011;22893;50.572;7.234;2022-09-14T07:39:35;4.53;;;1.45;;
24086;SDS011;22893;50.572;7.234;2022-09-14T07:42:02;3.02;;;1.10;;
24086;SDS011;22893;50.572;7.234;2022-09-14T07:44:30;2.10;;;1.00;;
24086;SDS011;22893;50.572;7.234;2022-09-14T07:46:57;3.50;;;0.90;;
24086;SDS011;22893;50.572;7.234;2022-09-14T07:49:25;3.70;;;1.47;;
24086;SDS011;22893;50.572;7.234;2022-09-14T07:51:53;8.10;;;1.47;;
24086;SDS011;22893;50.572;7.234;2022-09-14T07:54:20;2.47;;;1.10;;
24086;SDS011;22893;50.572;7.234;2022-09-14T07:56:47;1.30;;;0.85;;
24086;SDS011;22893;50.572;7.234;2022-09-14T07:59:15;3.92;;;1.15;;
24086;SDS011;22893;50.572;7.234;2022-09-14T08:01:43;3.83;;;0.88;;
24086;SDS011;22893;50.572;7.234;2022-09-14T08:04:11;1.50;;;0.75;;
24086;SDS011;22893;50.572;7.234;2022-09-14T08:06:38;3.12;;;0.93;;
24086;SDS011;22893;50.572;7.234;2022-09-14T08:09:07;2.02;;;0.85;;
24086;SDS011;22893;50.572;7.234;2022-09-14T08:11:35;1.95;;;0.82;;
24086;SDS011;22893;50.572;7.234;2022-09-14T08:14:03;2.77;;;1.22;;
24086;SDS011;22893;50.572;7.234;2022-09-14T08:16:34;1.95;;;1.15;;
24086;SDS011;22893;50.572;7.234;2022-09-14T08:19:04;1.57;;;1.00;;
24086;SDS011;22893;50.572;7.234;2022-09-14T08:21:35;2.52;;;0.95;;
24086;SDS011;22893;50.572;7.234;2022-09-14T08:24:03;2.70;;;0.90;;
24086;SDS011;22893;50.572;7.234;2022-09-14T08:26:32;1.70;;;0.90;;
24086;SDS011;22893;50.572;7.234;2022-09-14T08:29:05;2.75;;;0.85;;
24086;SDS011;22893;50.572;7.234;2022-09-14T08:31:38;6.05;;;1.00;;
24086;SDS011;22893;50.572;7.234;2022-09-14T08:34:03;3.15;;;1.12;;
24086;SDS011;22893;50.572;7.234;2022-09-14T08:36:32;3.10;;;0.80;;
24086;SDS011;22893;50.572;7.234;2022-09-14T08:39:02;2.25;;;0.78;;
24086;SDS011;22893;50.572;7.234;2022-09-14T08:49:35;1.87;;;0.80;;
24086;SDS011;22893;50.572;7.234;2022-09-14T08:55:18;5.00;;;1.10;;
24086;SDS011;22893;50.572;7.234;2022-09-14T08:57:55;3.95;;;1.42;;
24086;SDS011;22893;50.572;7.234;2022-09-14T09:00:35;2.55;;;0.80;;
24086;SDS011;22893;50.572;7.234;2022-09-14T09:03:28;2.98;;;0.95;;
24086;SDS011;22893;50.572;7.234;2022-09-14T09:06:21;1.35;;;0.65;;
24086;SDS011;22893;50.572;7.234;2022-09-14T09:11:42;1.37;;;0.80;;
24086;SDS011;22893;50.572;7.234;2022-09-14T09:14:15;1.60;;;0.70;;
24086;SDS011;22893;50.572;7.234;2022-09-14T09:16:47;2.90;;;0.93;;
24086;SDS011;22893;50.572;7.234;2022-09-14T09:19:20;3.05;;;1.00;;
24086;SDS011;22893;50.572;7.234;2022-09-14T09:21:53;4.92;;;0.93;;
24086;SDS011;22893;50.572;7.234;2022-09-14T09:27:13;2.60;;;0.95;;
24086;SDS011;22893;50.572;7.234;2022-09-14T09:29:40;1.42;;;0.80;;
24086;SDS011;22893;50.572;7.234;2022-09-14T09:32:17;1.75;;;0.82;;
24086;SDS011;22893;50.572;7.234;2022-09-14T09:34:41;2.83;;;0.70;;
24086;SDS011;22893;50.572;7.234;2022-09-14T09:37:13;2.00;;;0.98;;
24086;SDS011;22893;50.572;7.234;2022-09-14T09:39:42;6.35;;;1.25;;
24086;SDS011;22893;50.572;7.234;2022-09-14T09:42:18;1.40;;;0.90;;
24086;SDS011;22893;50.572;7.234;2022-09-14T09:44:52;6.70;;;1.15;;
24086;SDS011;22893;50.572;7.234;2022-09-14T09:47:41;2.58;;;1.25;;
24086;SDS011;22893;50.572;7.234;2022-09-14T09:50:00;2.12;;;0.70;;
24086;SDS011;22893;50.572;7.234;2022-09-14T09:52:30;1.95;;;1.00;;
24086;SDS011;22893;50.572;7.234;2022-09-14T09:54:59;3.98;;;0.98;;
24086;SDS011;22893;50.572;7.234;2022-09-14T09:57:30;1.82;;;0.98;;
24086;SDS011;22893;50.572;7.234;2022-09-14T10:02:48;2.98;;;0.90;;
24086;SDS011;22893;50.572;7.234;2022-09-14T10:08:00;2.72;;;0.80;;
24086;SDS011;22893;50.572;7.234;2022-09-14T10:13:24;1.32;;;0.93;;
24086;SDS011;22893;50.572;7.234;2022-09-14T10:15:47;5.28;;;0.70;;
24086;SDS011;22893;50.572;7.234;2022-09-14T10:18:15;1.32;;;0.75;;
24086;SDS011;22893;50.572;7.234;2022-09-14T10:21:03;1.75;;;0.98;;
24086;SDS011;22893;50.572;7.234;2022-09-14T10:23:24;1.27;;;0.93;;
24086;SDS011;22893;50.572;7.234;2022-09-14T10:28:47;2.30;;;0.93;;
24086;SDS011;22893;50.572;7.234;2022-09-14T10:33:56;4.87;;;1.57;;
24086;SDS011;22893;50.572;7.234;2022-09-14T10:36:28;2.90;;;1.02;;
24086;SDS011;22893;50.572;7.234;2022-09-14T10:45:00;2.10;;;1.37;;
24086;SDS011;22893;50.572;7.234;2022-09-14T10:47:48;1.52;;;0.70;;
24086;SDS011;22893;50.572;7.234;2022-09-14T10:50:36;1.27;;;0.80;;
24086;SDS011;22893;50.572;7.234;2022-09-14T10:53:13;2.95;;;0.90;;
24086;SDS011;22893;50.572;7.234;2022-09-14T10:55:56;1.15;;;0.80;;
24086;SDS011;22893;50.572;7.234;2022-09-14T10:58:46;0.90;;;0.72;;
24086;SDS011;22893;50.572;7.234;2022-09-14T11:07:11;3.80;;;0.95;;
24086;SDS011;22893;50.572;7.234;2022-09-14T11:09:56;3.52;;;0.98;;
24086;SDS011;22893;50.572;7.234;2022-09-14T11:12:38;3.45;;;1.32;;
24086;SDS011;22893;50.572;7.234;2022-09-14T11:21:00;4.12;;;1.00;;
24086;SDS011;22893;50.572;7.234;2022-09-14T11:26:11;7.03;;;1.17;;
24086;SDS011;22893;50.572;7.234;2022-09-14T11:31:50;3.27;;;1.05;;
24086;SDS011;22893;50.572;7.234;2022-09-14T11:34:34;2.17;;;1.27;;
24086;SDS011;22893;50.572;7.234;2022-09-14T11:37:18;1.55;;;1.00;;
24086;SDS011;22893;50.572;7.234;2022-09-14T11:40:13;1.98;;;1.00;;
24086;SDS011;22893;50.572;7.234;2022-09-14T11:45:31;2.05;;;1.17;;
24086;SDS011;22893;50.572;7.234;2022-09-14T11:48:10;3.83;;;1.17;;
24086;SDS011;22893;50.572;7.234;2022-09-14T11:50:39;2.75;;;1.10;;
24086;SDS011;22893;50.572;7.234;2022-09-14T11:53:10;3.58;;;1.10;;
24086;SDS011;22893;50.572;7.234;2022-09-14T11:55:40;2.62;;;1.35;;
24086;SDS011;22893;50.572;7.234;2022-09-14T11:58:19;2.70;;;1.10;;
24086;SDS011;22893;50.572;7.234;2022-09-14T12:11:45;2.87;;;1.20;;
24086;SDS011;22893;50.572;7.234;2022-09-14T12:17:18;3.90;;;1.75;;
24086;SDS011;22893;50.572;7.234;2022-09-14T12:19:58;2.77;;;1.47;;
24086;SDS011;22893;50.572;7.234;2022-09-14T12:25:04;2.92;;;1.40;;
24086;SDS011;22893;50.572;7.234;2022-09-14T12:27:37;5.67;;;1.45;;
24086;SDS011;22893;50.572;7.234;2022-09-14T12:32:58;2.20;;;1.45;;
24086;SDS011;22893;50.572;7.234;2022-09-14T12:35:42;3.77;;;1.50;;
24086;SDS011;22893;50.572;7.234;2022-09-14T12:56:36;1.90;;;1.20;;
24086;SDS011;22893;50.572;7.234;2022-09-14T12:59:11;2.37;;;1.05;;
24086;SDS011;22893;50.572;7.234;2022-09-14T13:04:41;2.05;;;1.05;;
24086;SDS011;22893;50.572;7.234;2022-09-14T13:07:14;1.35;;;0.90;;
24086;SDS011;22893;50.572;7.234;2022-09-14T13:09:53;3.22;;;1.10;;
24086;SDS011;22893;50.572;7.234;2022-09-14T13:12:46;2.12;;;0.82;;
24086;SDS011;22893;50.572;7.234;2022-09-14T13:15:18;2.52;;;0.78;;
24086;SDS011;22893;50.572;7.234;2022-09-14T13:18:04;3.02;;;1.00;;
24086;SDS011;22893;50.572;7.234;2022-09-14T13:20:33;1.72;;;1.00;;
24086;SDS011;22893;50.572;7.234;2022-09-14T13:23:01;4.28;;;1.27;;
24086;SDS011;22893;50.572;7.234;2022-09-14T13:25:34;1.80;;;0.95;;
24086;SDS011;22893;50.572;7.234;2022-09-14T13:28:05;1.80;;;1.40;;
24086;SDS011;22893;50.572;7.234;2022-09-14T13:30:34;1.82;;;1.00;;
24086;SDS011;22893;50.572;7.234;2022-09-14T13:33:03;2.80;;;1.27;;
24086;SDS011;22893;50.572;7.234;2022-09-14T13:35:32;3.05;;;0.90;;
24086;SDS011;22893;50.572;7.234;2022-09-14T13:38:15;1.62;;;1.02;;
24086;SDS011;22893;50.572;7.234;2022-09-14T13:40:44;1.98;;;1.10;;
24086;SDS011;22893;50.572;7.234;2022-09-14T13:43:14;3.42;;;0.98;;
24086;SDS011;22893;50.572;7.234;2022-09-14T13:45:47;2.12;;;0.70;;
24086;SDS011;22893;50.572;7.234;2022-09-14T13:48:16;8.08;;;1.90;;
24086;SDS011;22893;50.572;7.234;2022-09-14T13:50:47;2.05;;;1.00;;
24086;SDS011;22893;50.572;7.234;2022-09-14T14:01:50;1.60;;;1.10;;
24086;SDS011;22893;50.572;7.234;2022-09-14T14:07:04;3.62;;;1.20;;
24086;SDS011;22893;50.572;7.234;2022-09-14T14:09:40;2.37;;;1.02;;
24086;SDS011;22893;50.572;7.234;2022-09-14T14:12:36;2.80;;;0.88;;
24086;SDS011;22893;50.572;7.234;2022-09-14T14:15:38;1.40;;;0.98;;
24086;SDS011;22893;50.572;7.234;2022-09-14T14:20:22;2.77;;;0.80;;
24086;SDS011;22893;50.572;7.234;2022-09-14T14:22:56;1.90;;;1.30;;
24086;SDS011;22893;50.572;7.234;2022-09-14T14:26:13;2.85;;;1.57;;
24086;SDS011;22893;50.572;7.234;2022-09-14T14:30:55;3.52;;;1.10;;
24086;SDS011;22893;50.572;7.234;2022-09-14T14:33:24;3.92;;;1.42;;
24086;SDS011;22893;50.572;7.234;2022-09-14T14:35:52;3.20;;;1.40;;
24086;SDS011;22893;50.572;7.234;2022-09-14T14:38:23;4.75;;;1.60;;
24086;SDS011;22893;50.572;7.234;2022-09-14T14:40:51;7.83;;;1.90;;
24086;SDS011;22893;50.572;7.234;2022-09-14T14:43:21;3.15;;;2.02;;
24086;SDS011;22893;50.572;7.234;2022-09-14T14:45:55;4.85;;;1.62;;
24086;SDS011;22893;50.572;7.234;2022-09-14T14:48:21;3.55;;;1.98;;
24086;SDS011;22893;50.572;7.234;2022-09-14T14:50:49;1.65;;;1.12;;
24086;SDS011;22893;50.572;7.234;2022-09-14T14:53:16;4.12;;;1.85;;
24086;SDS011;22893;50.572;7.234;2022-09-14T14:55:44;2.58;;;1.47;;
24086;SDS011;22893;50.572;7.234;2022-09-14T14:58:14;2.80;;;1.55;;
24086;SDS011;22893;50.572;7.234;2022-09-14T15:00:43;4.92;;;2.15;;
24086;SDS011;22893;50.572;7.234;2022-09-14T15:03:12;11.28;;;2.33;;
24086;SDS011;22893;50.572;7.234;2022-09-14T15:05:46;5.00;;;2.10;;
24086;SDS011;22893;50.572;7.234;2022-09-14T15:08:15;8.68;;;2.42;;
24086;SDS011;22893;50.572;7.234;2022-09-14T15:10:44;5.08;;;1.98;;
24086;SDS011;22893;50.572;7.234;2022-09-14T15:13:13;4.70;;;1.92;;
24086;SDS011;22893;50.572;7.234;2022-09-14T15:15:41;3.25;;;2.08;;
24086;SDS011;22893;50.572;7.234;2022-09-14T15:18:09;6.65;;;2.58;;
24086;SDS011;22893;50.572;7.234;2022-09-14T15:20:37;6.15;;;2.27;;
24086;SDS011;22893;50.572;7.234;2022-09-14T15:23:05;5.00;;;2.10;;
24086;SDS011;22893;50.572;7.234;2022-09-14T15:25:34;2.80;;;1.65;;
24086;SDS011;22893;50.572;7.234;2022-09-14T15:28:01;2.90;;;1.60;;
24086;SDS011;22893;50.572;7.234;2022-09-14T15:30:29;5.35;;;1.85;;
24086;SDS011;22893;50.572;7.234;2022-09-14T15:32:56;5.33;;;2.02;;
24086;SDS011;22893;50.572;7.234;2022-09-14T15:35:24;5.62;;;2.37;;
24086;SDS011;22893;50.572;7.234;2022-09-14T15:37:51;5.60;;;2.17;;
24086;SDS011;22893;50.572;7.234;2022-09-14T15:40:19;3.98;;;2.22;;
24086;SDS011;22893;50.572;7.234;2022-09-14T15:42:47;7.80;;;2.70;;
24086;SDS011;22893;50.572;7.234;2022-09-14T15:45:15;7.67;;;2.25;;
24086;SDS011;22893;50.572;7.234;2022-09-14T15:47:42;5.72;;;2.02;;
24086;SDS011;22893;50.572;7.234;2022-09-14T15:50:12;3.55;;;1.60;;
24086;SDS011;22893;50.572;7.234;2022-09-14T15:52:39;2.62;;;1.72;;
24086;SDS011;22893;50.572;7.234;2022-09-14T15:55:09;6.47;;;1.85;;
24086;SDS011;22893;50.572;7.234;2022-09-14T15:57:37;3.90;;;1.95;;
24086;SDS011;22893;50.572;7.234;2022-09-14T16:00:06;7.72;;;2.50;;
24086;SDS011;22893;50.572;7.234;2022-09-14T16:02:37;6.05;;;1.70;;
24086;SDS011;22893;50.572;7.234;2022-09-14T16:05:05;6.62;;;1.90;;
24086;SDS011;22893;50.572;7.234;2022-09-14T16:07:33;2.47;;;1.52;;
24086;SDS011;22893;50.572;7.234;2022-09-14T16:10:01;8.30;;;2.20;;
24086;SDS011;22893;50.572;7.234;2022-09-14T16:12:28;6.10;;;1.80;;
24086;SDS011;22893;50.572;7.234;2022-09-14T16:14:56;4.37;;;1.57;;
24086;SDS011;22893;50.572;7.234;2022-09-14T16:17:23;3.77;;;1.67;;
24086;SDS011;22893;50.572;7.234;2022-09-14T16:19:51;6.58;;;2.22;;
24086;SDS011;22893;50.572;7.234;2022-09-14T16:22:18;4.58;;;1.70;;
24086;SDS011;22893;50.572;7.234;2022-09-14T16:24:46;5.22;;;1.77;;
24086;SDS011;22893;50.572;7.234;2022-09-14T16:27:14;2.95;;;1.60;;
24086;SDS011;22893;50.572;7.234;2022-09-14T16:29:41;3.55;;;1.65;;
24086;SDS011;22893;50.572;7.234;2022-09-14T16:32:09;2.65;;;1.57;;
24086;SDS011;22893;50.572;7.234;2022-09-14T16:34:36;4.97;;;1.60;;
24086;SDS011;22893;50.572;7.234;2022-09-14T16:37:04;2.47;;;1.60;;
24086;SDS011;22893;50.572;7.234;2022-09-14T16:39:32;4.15;;;1.60;;
24086;SDS011;22893;50.572;7.234;2022-09-14T16:41:59;5.20;;;1.40;;
24086;SDS011;22893;50.572;7.234;2022-09-14T16:44:27;2.80;;;1.70;;
24086;SDS011;22893;50.572;7.234;2022-09-14T16:46:56;3.20;;;1.65;;
24086;SDS011;22893;50.572;7.234;2022-09-14T16:49:24;3.40;;;1.62;;
24086;SDS011;22893;50.572;7.234;2022-09-14T16:51:53;3.58;;;1.20;;
24086;SDS011;22893;50.572;7.234;2022-09-14T16:54:21;2.17;;;1.50;;
24086;SDS011;22893;50.572;7.234;2022-09-14T16:56:50;2.80;;;1.50;;
24086;SDS011;22893;50.572;7.234;2022-09-14T16:59:19;5.08;;;1.55;;
24086;SDS011;22893;50.572;7.234;2022-09-14T17:01:47;5.97;;;1.75;;
24086;SDS011;22893;50.572;7.234;2022-09-14T17:04:15;3.10;;;1.60;;
24086;SDS011;22893;50.572;7.234;2022-09-14T17:06:46;1.30;;;1.07;;
24086;SDS011;22893;50.572;7.234;2022-09-14T17:09:16;3.02;;;1.75;;
24086;SDS011;22893;50.572;7.234;2022-09-14T17:11:48;2.80;;;1.47;;
24086;SDS011;22893;50.572;7.234;2022-09-14T17:14:17;3.17;;;1.65;;
24086;SDS011;22893;50.572;7.234;2022-09-14T17:16:46;4.85;;;1.77;;
24086;SDS011;22893;50.572;7.234;2022-09-14T17:19:14;3.72;;;1.62;;
24086;SDS011;22893;50.572;7.234;2022-09-14T17:21:43;3.22;;;1.60;;
24086;SDS011;22893;50.572;7.234;2022-09-14T17:24:12;2.55;;;1.45;;
24086;SDS011;22893;50.572;7.234;2022-09-14T17:26:41;3.35;;;1.62;;
24086;SDS011;22893;50.572;7.234;2022-09-14T17:29:09;2.60;;;1.62;;
24086;SDS011;22893;50.572;7.234;2022-09-14T17:31:38;2.60;;;1.52;;
24086;SDS011;22893;50.572;7.234;2022-09-14T17:34:08;3.12;;;1.52;;
24086;SDS011;22893;50.572;7.234;2022-09-14T17:36:37;2.77;;;1.30;;
24086;SDS011;22893;50.572;7.234;2022-09-14T17:39:05;2.60;;;1.42;;
24086;SDS011;22893;50.572;7.234;2022-09-14T17:41:33;3.65;;;1.65;;
24086;SDS011;22893;50.572;7.234;2022-09-14T17:44:02;2.55;;;1.52;;
24086;SDS011;22893;50.572;7.234;2022-09-14T17:46:31;3.25;;;2.15;;
24086;SDS011;22893;50.572;7.234;2022-09-14T17:48:59;2.85;;;1.27;;
24086;SDS011;22893;50.572;7.234;2022-09-14T17:51:29;4.58;;;1.80;;
24086;SDS011;22893;50.572;7.234;2022-09-14T17:53:59;2.98;;;1.70;;
24086;SDS011;22893;50.572;7.234;2022-09-14T17:56:27;4.83;;;2.05;;
24086;SDS011;22893;50.572;7.234;2022-09-14T17:58:57;4.12;;;1.87;;
24086;SDS011;22893;50.572;7.234;2022-09-14T18:01:26;5.83;;;2.20;;
24086;SDS011;22893;50.572;7.234;2022-09-14T18:03:57;1.95;;;1.30;;
24086;SDS011;22893;50.572;7.234;2022-09-14T18:06:26;11.05;;;2.25;;
24086;SDS011;22893;50.572;7.234;2022-09-14T18:08:57;2.95;;;1.47;;
24086;SDS011;22893;50.572;7.234;2022-09-14T18:11:26;2.45;;;1.40;;
24086;SDS011;22893;50.572;7.234;2022-09-14T18:13:54;5.65;;;1.57;;
24086;SDS011;22893;50.572;7.234;2022-09-14T18:16:23;3.65;;;1.75;;
24086;SDS011;22893;50.572;7.234;2022-09-14T18:18:51;2.72;;;1.80;;
24086;SDS011;22893;50.572;7.234;2022-09-14T18:21:19;5.03;;;2.22;;
24086;SDS011;22893;50.572;7.234;2022-09-14T18:23:52;4.33;;;2.22;;
24086;SDS011;22893;50.572;7.234;2022-09-14T18:26:17;4.37;;;1.80;;
24086;SDS011;22893;50.572;7.234;2022-09-14T18:28:45;6.55;;;1.95;;
24086;SDS011;22893;50.572;7.234;2022-09-14T18:31:15;6.05;;;2.22;;
24086;SDS011;22893;50.572;7.234;2022-09-14T18:33:52;7.28;;;1.90;;
24086;SDS011;22893;50.572;7.234;2022-09-14T18:36:17;4.45;;;2.30;;
24086;SDS011;22893;50.572;7.234;2022-09-14T18:38:45;4.22;;;2.27;;
24086;SDS011;22893;50.572;7.234;2022-09-14T18:41:14;6.50;;;2.47;;
24086;SDS011;22893;50.572;7.234;2022-09-14T18:43:43;5.47;;;2.17;;
24086;SDS011;22893;50.572;7.234;2022-09-14T18:46:13;5.00;;;2.05;;
24086;SDS011;22893;50.572;7.234;2022-09-14T18:48:41;3.98;;;2.30;;
24086;SDS011;22893;50.572;7.234;2022-09-14T18:51:09;3.92;;;2.60;;
24086;SDS011;22893;50.572;7.234;2022-09-14T18:53:38;3.40;;;2.05;;
24086;SDS011;22893;50.572;7.234;2022-09-14T18:56:07;5.28;;;2.17;;
24086;SDS011;22893;50.572;7.234;2022-09-14T18:58:37;4.70;;;2.75;;
24086;SDS011;22893;50.572;7.234;2022-09-14T19:01:06;6.40;;;3.47;;
24086;SDS011;22893;50.572;7.234;2022-09-14T19:03:35;5.10;;;2.75;;
24086;SDS011;22893;50.572;7.234;2022-09-14T19:06:10;5.47;;;2.95;;
24086;SDS011;22893;50.572;7.234;2022-09-14T19:08:37;8.15;;;3.85;;
24086;SDS011;22893;50.572;7.234;2022-09-14T19:11:12;4.95;;;3.45;;
24086;SDS011;22893;50.572;7.234;2022-09-14T19:13:45;6.67;;;3.98;;
24086;SDS011;22893;50.572;7.234;2022-09-14T19:16:14;5.58;;;3.15;;
24086;SDS011;22893;50.572;7.234;2022-09-14T19:18:43;7.53;;;3.85;;
24086;SDS011;22893;50.572;7.234;2022-09-14T19:21:14;6.05;;;2.98;;
24086;SDS011;22893;50.572;7.234;2022-09-14T19:23:43;7.15;;;3.67;;
24086;SDS011;22893;50.572;7.234;2022-09-14T19:26:12;6.70;;;3.60;;
24086;SDS011;22893;50.572;7.234;2022-09-14T19:28:41;7.53;;;3.87;;
24086;SDS011;22893;50.572;7.234;2022-09-14T19:31:10;6.97;;;3.87;;
24086;SDS011;22893;50.572;7.234;2022-09-14T19:33:40;7.45;;;3.87;;
24086;SDS011;22893;50.572;7.234;2022-09-14T19:36:09;5.40;;;3.58;;
24086;SDS011;22893;50.572;7.234;2022-09-14T19:38:39;8.23;;;3.83;;
24086;SDS011;22893;50.572;7.234;2022-09-14T19:41:07;7.62;;;4.60;;
24086;SDS011;22893;50.572;7.234;2022-09-14T19:43:35;7.40;;;4.10;;
24086;SDS011;22893;50.572;7.234;2022-09-14T19:46:03;8.13;;;4.35;;
24086;SDS011;22893;50.572;7.234;2022-09-14T19:48:32;10.90;;;4.10;;
24086;SDS011;22893;50.572;7.234;2022-09-14T19:51:02;7.08;;;4.22;;
24086;SDS011;22893;50.572;7.234;2022-09-14T19:53:50;7.15;;;4.40;;
24086;SDS011;22893;50.572;7.234;2022-09-14T19:56:20;8.13;;;3.95;;
24086;SDS011;22893;50.572;7.234;2022-09-14T19:58:51;7.83;;;4.50;;
24086;SDS011;22893;50.572;7.234;2022-09-14T20:01:21;8.40;;;4.10;;
24086;SDS011;22893;50.572;7.234;2022-09-14T20:03:50;7.83;;;4.45;;
24086;SDS011;22893;50.572;7.234;2022-09-14T20:06:19;7.45;;;4.33;;
24086;SDS011;22893;50.572;7.234;2022-09-14T20:08:49;7.53;;;4.58;;
24086;SDS011;22893;50.572;7.234;2022-09-14T20:11:22;5.87;;;4.17;;
24086;SDS011;22893;50.572;7.234;2022-09-14T20:13:54;7.55;;;4.45;;
24086;SDS011;22893;50.572;7.234;2022-09-14T20:16:24;6.42;;;4.40;;
24086;SDS011;22893;50.572;7.234;2022-09-14T20:18:57;9.38;;;3.90;;
24086;SDS011;22893;50.572;7.234;2022-09-14T20:21:27;8.20;;;3.62;;
24086;SDS011;22893;50.572;7.234;2022-09-14T20:23:58;6.15;;;3.35;;
24086;SDS011;22893;50.572;7.234;2022-09-14T20:26:26;5.92;;;3.42;;
24086;SDS011;22893;50.572;7.234;2022-09-14T20:28:55;6.05;;;3.37;;
24086;SDS011;22893;50.572;7.234;2022-09-14T20:31:26;5.40;;;3.33;;
24086;SDS011;22893;50.572;7.234;2022-09-14T20:33:54;9.75;;;3.15;;
24086;SDS011;22893;50.572;7.234;2022-09-14T20:36:23;7.92;;;3.77;;
24086;SDS011;22893;50.572;7.234;2022-09-14T20:38:52;6.30;;;3.15;;
24086;SDS011;22893;50.572;7.234;2022-09-14T20:41:21;5.03;;;3.30;;
24086;SDS011;22893;50.572;7.234;2022-09-14T20:43:51;5.35;;;3.33;;
24086;SDS011;22893;50.572;7.234;2022-09-14T20:46:21;5.50;;;3.72;;
24086;SDS011;22893;50.572;7.234;2022-09-14T20:48:50;5.60;;;3.65;;
24086;SDS011;22893;50.572;7.234;2022-09-14T20:51:20;5.78;;;3.27;;
24086;SDS011;22893;50.572;7.234;2022-09-14T20:53:48;6.65;;;3.83;;
24086;SDS011;22893;50.572;7.234;2022-09-14T20:56:17;6.92;;;3.45;;
24086;SDS011;22893;50.572;7.234;2022-09-14T20:58:47;5.55;;;3.60;;
24086;SDS011;22893;50.572;7.234;2022-09-14T21:01:18;6.90;;;3.62;;
24086;SDS011;22893;50.572;7.234;2022-09-14T21:03:47;5.83;;;3.35;;
24086;SDS011;22893;50.572;7.234;2022-09-14T21:06:20;5.58;;;3.58;;
24086;SDS011;22893;50.572;7.234;2022-09-14T21:08:49;5.28;;;3.72;;
24086;SDS011;22893;50.572;7.234;2022-09-14T21:11:22;7.30;;;3.42;;
24086;SDS011;22893;50.572;7.234;2022-09-14T21:13:48;7.15;;;3.62;;
24086;SDS011;22893;50.572;7.234;2022-09-14T21:16:18;6.10;;;3.15;;
24086;SDS011;22893;50.572;7.234;2022-09-14T21:18:50;7.58;;;3.00;;
24086;SDS011;22893;50.572;7.234;2022-09-14T21:21:23;6.37;;;3.92;;
24086;SDS011;22893;50.572;7.234;2022-09-14T21:23:54;7.37;;;3.77;;
24086;SDS011;22893;50.572;7.234;2022-09-14T21:26:22;5.40;;;2.67;;
24086;SDS011;22893;50.572;7.234;2022-09-14T21:28:56;5.97;;;3.35;;
24086;SDS011;22893;50.572;7.234;2022-09-14T21:31:21;5.97;;;3.85;;
24086;SDS011;22893;50.572;7.234;2022-09-14T21:33:50;6.65;;;3.45;;
24086;SDS011;22893;50.572;7.234;2022-09-14T21:36:21;5.87;;;3.62;;
24086;SDS011;22893;50.572;7.234;2022-09-14T21:38:51;6.17;;;3.72;;
24086;SDS011;22893;50.572;7.234;2022-09-14T21:41:21;4.80;;;3.42;;
24086;SDS011;22893;50.572;7.234;2022-09-14T21:43:50;5.50;;;3.10;;
24086;SDS011;22893;50.572;7.234;2022-09-14T21:46:18;6.00;;;3.60;;
24086;SDS011;22893;50.572;7.234;2022-09-14T21:48:46;5.60;;;3.25;;
24086;SDS011;22893;50.572;7.234;2022-09-14T21:51:15;5.67;;;3.40;;
24086;SDS011;22893;50.572;7.234;2022-09-14T21:53:49;5.72;;;3.35;;
24086;SDS011;22893;50.572;7.234;2022-09-14T21:56:15;7.72;;;3.83;;
24086;SDS011;22893;50.572;7.234;2022-09-14T21:58:51;8.53;;;3.77;;
24086;SDS011;22893;50.572;7.234;2022-09-14T22:01:23;6.30;;;3.85;;
24086;SDS011;22893;50.572;7.234;2022-09-14T22:03:52;7.05;;;3.83;;
24086;SDS011;22893;50.572;7.234;2022-09-14T22:06:22;5.33;;;3.10;;
24086;SDS011;22893;50.572;7.234;2022-09-14T22:08:52;6.37;;;3.77;;
24086;SDS011;22893;50.572;7.234;2022-09-14T22:11:25;9.60;;;4.25;;
24086;SDS011;22893;50.572;7.234;2022-09-14T22:13:55;6.65;;;3.50;;
24086;SDS011;22893;50.572;7.234;2022-09-14T22:16:25;9.63;;;3.75;;
24086;SDS011;22893;50.572;7.234;2022-09-14T22:18:55;9.48;;;4.15;;
24086;SDS011;22893;50.572;7.234;2022-09-14T22:21:24;7.22;;;3.90;;
24086;SDS011;22893;50.572;7.234;2022-09-14T22:23:54;8.75;;;4.60;;
24086;SDS011;22893;50.572;7.234;2022-09-14T22:26:24;7.17;;;3.60;;
24086;SDS011;22893;50.572;7.234;2022-09-14T22:28:54;10.30;;;4.92;;
24086;SDS011;22893;50.572;7.234;2022-09-14T22:31:23;19.50;;;7.22;;
24086;SDS011;22893;50.572;7.234;2022-09-14T22:33:53;12.98;;;6.97;;
24086;SDS011;22893;50.572;7.234;2022-09-14T22:36:22;16.48;;;6.92;;
24086;SDS011;22893;50.572;7.234;2022-09-14T22:38:53;13.85;;;6.92;;
24086;SDS011;22893;50.572;7.234;2022-09-14T22:41:23;13.00;;;6.47;;
24086;SDS011;22893;50.572;7.234;2022-09-14T22:43:52;16.17;;;7.12;;
24086;SDS011;22893;50.572;7.234;2022-09-14T22:46:21;11.15;;;5.03;;
24086;SDS011;22893;50.572;7.234;2022-09-14T22:48:50;13.62;;;5.62;;
24086;SDS011;22893;50.572;7.234;2022-09-14T22:51:19;10.43;;;5.90;;
24086;SDS011;22893;50.572;7.234;2022-09-14T22:53:49;17.52;;;6.03;;
24086;SDS011;22893;50.572;7.234;2022-09-14T22:56:22;8.98;;;4.47;;
24086;SDS011;22893;50.572;7.234;2022-09-14T22:58:54;8.80;;;4.25;;
24086;SDS011;22893;50.572;7.234;2022-09-14T23:01:24;10.95;;;5.65;;
24086;SDS011;22893;50.572;7.234;2022-09-14T23:03:57;11.83;;;5.03;;
24086;SDS011;22893;50.572;7.234;2022-09-14T23:06:32;9.48;;;4.40;;
24086;SDS011;22893;50.572;7.234;2022-09-14T23:08:56;10.90;;;5.45;;
24086;SDS011;22893;50.572;7.234;2022-09-14T23:11:26;9.18;;;4.55;;
24086;SDS011;22893;50.572;7.234;2022-09-14T23:13:54;8.33;;;4.83;;
24086;SDS011;22893;50.572;7.234;2022-09-14T23:16:24;10.08;;;5.20;;
24086;SDS011;22893;50.572;7.234;2022-09-14T23:18:54;9.23;;;4.40;;
24086;SDS011;22893;50.572;7.234;2022-09-14T23:21:23;9.20;;;5.20;;
24086;SDS011;22893;50.572;7.234;2022-09-14T23:23:51;11.12;;;4.55;;
24086;SDS011;22893;50.572;7.234;2022-09-14T23:26:21;7.17;;;3.75;;